sensor_id;sensor_type;location;lat;lon;timestamp;P1;durP1;ratioP1;P2;durP2;ratioP2
36009;SDS011;22076;52.182;5.404;2024-01-11T00:01:33;18.33;;;8.70;;
36009;SDS011;22076;52.182;5.404;2024-01-11T00:04:00;18.90;;;9.20;;
36009;SDS011;22076;52.182;5.404;2024-01-11T00:06:26;21.20;;;9.15;;
36009;SDS011;22076;52.182;5.404;2024-01-11T00:08:53;10.15;;;6.13;;
36009;SDS011;22076;52.182;5.404;2024-01-11T00:11:19;27.27;;;10.88;;
36009;SDS011;22076;52.182;5.404;2024-01-11T00:13:46;21.50;;;8.98;;
36009;SDS011;22076;52.182;5.404;2024-01-11T00:16:12;21.85;;;9.43;;
36009;SDS011;22076;52.182;5.404;2024-01-11T00:18:40;20.63;;;10.65;;
36009;SDS011;22076;52.182;5.404;2024-01-11T00:21:07;21.92;;;10.85;;
36009;SDS011;22076;52.182;5.404;2024-01-11T00:23:33;26.73;;;11.80;;
36009;SDS011;22076;52.182;5.404;2024-01-11T00:26:00;26.23;;;12.25;;
36009;SDS011;22076;52.182;5.404;2024-01-11T00:28:26;21.58;;;10.50;;
36009;SDS011;22076;52.182;5.404;2024-01-11T00:30:53;22.23;;;8.35;;
36009;SDS011;22076;52.182;5.404;2024-01-11T00:33:19;27.30;;;11.77;;
36009;SDS011;22076;52.182;5.404;2024-01-11T00:35:47;29.45;;;13.65;;
36009;SDS011;22076;52.182;5.404;2024-01-11T00:38:14;23.33;;;11.68;;
36009;SDS011;22076;52.182;5.404;2024-01-11T00:40:40;29.42;;;13.68;;
36009;SDS011;22076;52.182;5.404;2024-01-11T00:43:07;35.30;;;14.13;;
36009;SDS011;22076;52.182;5.404;2024-01-11T00:45:34;28.08;;;11.15;;
36009;SDS011;22076;52.182;5.404;2024-01-11T00:48:00;20.10;;;9.00;;
36009;SDS011;22076;52.182;5.404;2024-01-11T00:50:27;26.98;;;11.55;;
36009;SDS011;22076;52.182;5.404;2024-01-11T00:52:55;35.38;;;12.32;;
36009;SDS011;22076;52.182;5.404;2024-01-11T00:55:22;32.42;;;13.50;;
36009;SDS011;22076;52.182;5.404;2024-01-11T00:57:49;33.38;;;15.25;;
36009;SDS011;22076;52.182;5.404;2024-01-11T01:00:16;29.88;;;12.65;;
36009;SDS011;22076;52.182;5.404;2024-01-11T01:02:42;25.60;;;10.50;;
36009;SDS011;22076;52.182;5.404;2024-01-11T01:05:09;26.70;;;12.45;;
36009;SDS011;22076;52.182;5.404;2024-01-11T01:07:36;29.38;;;13.68;;
36009;SDS011;22076;52.182;5.404;2024-01-11T01:10:04;30.35;;;13.32;;
36009;SDS011;22076;52.182;5.404;2024-01-11T01:12:31;22.15;;;10.23;;
36009;SDS011;22076;52.182;5.404;2024-01-11T01:14:57;22.10;;;11.30;;
36009;SDS011;22076;52.182;5.404;2024-01-11T01:17:24;31.63;;;12.38;;
36009;SDS011;22076;52.182;5.404;2024-01-11T01:19:50;28.70;;;13.30;;
36009;SDS011;22076;52.182;5.404;2024-01-11T01:22:17;24.40;;;11.00;;
36009;SDS011;22076;52.182;5.404;2024-01-11T01:24:44;22.48;;;10.18;;
36009;SDS011;22076;52.182;5.404;2024-01-11T01:27:12;28.55;;;11.98;;
36009;SDS011;22076;52.182;5.404;2024-01-11T01:29:38;25.80;;;11.77;;
36009;SDS011;22076;52.182;5.404;2024-01-11T01:32:05;18.90;;;9.30;;
36009;SDS011;22076;52.182;5.404;2024-01-11T01:34:31;23.77;;;10.40;;
36009;SDS011;22076;52.182;5.404;2024-01-11T01:36:58;30.67;;;12.88;;
36009;SDS011;22076;52.182;5.404;2024-01-11T01:39:24;22.58;;;10.65;;
36009;SDS011;22076;52.182;5.404;2024-01-11T01:41:51;26.10;;;11.70;;
36009;SDS011;22076;52.182;5.404;2024-01-11T01:44:19;34.85;;;13.10;;
36009;SDS011;22076;52.182;5.404;2024-01-11T01:46:45;18.80;;;8.75;;
36009;SDS011;22076;52.182;5.404;2024-01-11T01:49:13;23.63;;;10.48;;
36009;SDS011;22076;52.182;5.404;2024-01-11T01:51:39;22.92;;;11.07;;
36009;SDS011;22076;52.182;5.404;2024-01-11T01:54:06;20.67;;;9.50;;
36009;SDS011;22076;52.182;5.404;2024-01-11T01:56:33;25.25;;;10.68;;
36009;SDS011;22076;52.182;5.404;2024-01-11T01:58:59;27.08;;;12.00;;
36009;SDS011;22076;52.182;5.404;2024-01-11T02:01:29;28.52;;;11.48;;
36009;SDS011;22076;52.182;5.404;2024-01-11T02:03:56;34.03;;;14.35;;
36009;SDS011;22076;52.182;5.404;2024-01-11T02:06:24;28.85;;;12.95;;
36009;SDS011;22076;52.182;5.404;2024-01-11T02:08:54;26.90;;;12.82;;
36009;SDS011;22076;52.182;5.404;2024-01-11T02:11:22;27.25;;;12.65;;
36009;SDS011;22076;52.182;5.404;2024-01-11T02:13:49;31.20;;;12.43;;
36009;SDS011;22076;52.182;5.404;2024-01-11T02:16:16;20.02;;;9.85;;
36009;SDS011;22076;52.182;5.404;2024-01-11T02:18:44;36.15;;;16.30;;
36009;SDS011;22076;52.182;5.404;2024-01-11T02:21:11;25.83;;;12.02;;
36009;SDS011;22076;52.182;5.404;2024-01-11T02:23:41;20.40;;;9.82;;
36009;SDS011;22076;52.182;5.404;2024-01-11T02:26:13;30.15;;;13.55;;
36009;SDS011;22076;52.182;5.404;2024-01-11T02:28:42;38.03;;;18.17;;
36009;SDS011;22076;52.182;5.404;2024-01-11T02:31:10;25.30;;;11.68;;
36009;SDS011;22076;52.182;5.404;2024-01-11T02:33:36;29.40;;;11.40;;
36009;SDS011;22076;52.182;5.404;2024-01-11T02:36:03;24.58;;;11.73;;
36009;SDS011;22076;52.182;5.404;2024-01-11T02:38:30;35.75;;;16.42;;
36009;SDS011;22076;52.182;5.404;2024-01-11T02:40:58;25.67;;;12.52;;
36009;SDS011;22076;52.182;5.404;2024-01-11T02:43:26;42.40;;;17.63;;
36009;SDS011;22076;52.182;5.404;2024-01-11T02:45:53;35.38;;;14.88;;
36009;SDS011;22076;52.182;5.404;2024-01-11T02:48:20;26.67;;;12.10;;
36009;SDS011;22076;52.182;5.404;2024-01-11T02:50:47;26.90;;;11.55;;
36009;SDS011;22076;52.182;5.404;2024-01-11T02:53:13;27.17;;;12.27;;
36009;SDS011;22076;52.182;5.404;2024-01-11T02:55:40;37.63;;;16.67;;
36009;SDS011;22076;52.182;5.404;2024-01-11T02:58:06;31.45;;;14.07;;
36009;SDS011;22076;52.182;5.404;2024-01-11T03:00:34;41.17;;;19.50;;
36009;SDS011;22076;52.182;5.404;2024-01-11T03:03:01;31.60;;;13.27;;
36009;SDS011;22076;52.182;5.404;2024-01-11T03:05:27;27.42;;;12.98;;
36009;SDS011;22076;52.182;5.404;2024-01-11T03:07:54;43.83;;;18.90;;
36009;SDS011;22076;52.182;5.404;2024-01-11T03:10:20;27.63;;;12.35;;
36009;SDS011;22076;52.182;5.404;2024-01-11T03:12:47;28.15;;;12.32;;
36009;SDS011;22076;52.182;5.404;2024-01-11T03:15:14;37.75;;;16.73;;
36009;SDS011;22076;52.182;5.404;2024-01-11T03:17:42;34.25;;;15.40;;
36009;SDS011;22076;52.182;5.404;2024-01-11T03:20:09;54.20;;;21.35;;
36009;SDS011;22076;52.182;5.404;2024-01-11T03:22:36;39.60;;;17.67;;
36009;SDS011;22076;52.182;5.404;2024-01-11T03:25:02;31.38;;;15.55;;
36009;SDS011;22076;52.182;5.404;2024-01-11T03:27:29;28.83;;;13.70;;
36009;SDS011;22076;52.182;5.404;2024-01-11T03:29:56;30.45;;;14.18;;
36009;SDS011;22076;52.182;5.404;2024-01-11T03:32:22;30.45;;;13.68;;
36009;SDS011;22076;52.182;5.404;2024-01-11T03:34:50;45.70;;;19.55;;
36009;SDS011;22076;52.182;5.404;2024-01-11T03:37:17;32.60;;;14.27;;
36009;SDS011;22076;52.182;5.404;2024-01-11T03:39:43;31.77;;;14.50;;
36009;SDS011;22076;52.182;5.404;2024-01-11T03:42:10;34.47;;;14.90;;
36009;SDS011;22076;52.182;5.404;2024-01-11T03:44:36;32.45;;;15.20;;
36009;SDS011;22076;52.182;5.404;2024-01-11T03:47:03;40.55;;;19.02;;
36009;SDS011;22076;52.182;5.404;2024-01-11T03:49:30;29.77;;;13.00;;
36009;SDS011;22076;52.182;5.404;2024-01-11T03:51:58;29.55;;;14.90;;
36009;SDS011;22076;52.182;5.404;2024-01-11T03:54:24;30.40;;;13.52;;
36009;SDS011;22076;52.182;5.404;2024-01-11T03:56:51;28.20;;;12.23;;
36009;SDS011;22076;52.182;5.404;2024-01-11T03:59:17;42.85;;;16.98;;
36009;SDS011;22076;52.182;5.404;2024-01-11T04:01:44;51.80;;;22.05;;
36009;SDS011;22076;52.182;5.404;2024-01-11T04:04:10;29.65;;;15.18;;
36009;SDS011;22076;52.182;5.404;2024-01-11T04:06:37;38.13;;;17.70;;
36009;SDS011;22076;52.182;5.404;2024-01-11T04:09:05;32.17;;;14.55;;
36009;SDS011;22076;52.182;5.404;2024-01-11T04:11:32;44.90;;;17.73;;
36009;SDS011;22076;52.182;5.404;2024-01-11T04:13:58;46.05;;;20.15;;
36009;SDS011;22076;52.182;5.404;2024-01-11T04:16:25;38.63;;;18.70;;
36009;SDS011;22076;52.182;5.404;2024-01-11T04:18:52;41.45;;;18.80;;
36009;SDS011;22076;52.182;5.404;2024-01-11T04:21:22;27.70;;;13.82;;
36009;SDS011;22076;52.182;5.404;2024-01-11T04:23:49;38.78;;;18.15;;
36009;SDS011;22076;52.182;5.404;2024-01-11T04:26:17;41.75;;;18.52;;
36009;SDS011;22076;52.182;5.404;2024-01-11T04:28:44;33.97;;;16.05;;
36009;SDS011;22076;52.182;5.404;2024-01-11T04:31:11;28.92;;;13.82;;
36009;SDS011;22076;52.182;5.404;2024-01-11T04:33:39;37.63;;;16.30;;
36009;SDS011;22076;52.182;5.404;2024-01-11T04:36:06;43.58;;;18.60;;
36009;SDS011;22076;52.182;5.404;2024-01-11T04:38:33;46.83;;;21.55;;
36009;SDS011;22076;52.182;5.404;2024-01-11T04:40:59;46.78;;;20.45;;
36009;SDS011;22076;52.182;5.404;2024-01-11T04:43:27;49.25;;;21.33;;
36009;SDS011;22076;52.182;5.404;2024-01-11T04:45:54;56.05;;;23.80;;
36009;SDS011;22076;52.182;5.404;2024-01-11T04:48:20;38.30;;;16.20;;
36009;SDS011;22076;52.182;5.404;2024-01-11T04:50:47;33.65;;;15.25;;
36009;SDS011;22076;52.182;5.404;2024-01-11T04:53:13;28.55;;;13.80;;
36009;SDS011;22076;52.182;5.404;2024-01-11T04:55:40;45.10;;;19.35;;
36009;SDS011;22076;52.182;5.404;2024-01-11T04:58:07;46.13;;;20.42;;
36009;SDS011;22076;52.182;5.404;2024-01-11T05:00:35;53.35;;;25.00;;
36009;SDS011;22076;52.182;5.404;2024-01-11T05:03:01;33.08;;;14.30;;
36009;SDS011;22076;52.182;5.404;2024-01-11T05:05:28;50.35;;;21.10;;
36009;SDS011;22076;52.182;5.404;2024-01-11T05:07:54;56.42;;;23.77;;
36009;SDS011;22076;52.182;5.404;2024-01-11T05:10:21;67.82;;;28.73;;
36009;SDS011;22076;52.182;5.404;2024-01-11T05:12:47;54.97;;;24.50;;
36009;SDS011;22076;52.182;5.404;2024-01-11T05:15:14;55.85;;;24.73;;
36009;SDS011;22076;52.182;5.404;2024-01-11T05:17:42;59.03;;;25.45;;
36009;SDS011;22076;52.182;5.404;2024-01-11T05:20:09;37.72;;;16.75;;
36009;SDS011;22076;52.182;5.404;2024-01-11T05:22:36;59.00;;;28.55;;
36009;SDS011;22076;52.182;5.404;2024-01-11T05:25:02;47.25;;;20.23;;
36009;SDS011;22076;52.182;5.404;2024-01-11T05:27:29;29.63;;;14.02;;
36009;SDS011;22076;52.182;5.404;2024-01-11T05:29:56;34.28;;;16.48;;
36009;SDS011;22076;52.182;5.404;2024-01-11T05:32:22;35.33;;;17.75;;
36009;SDS011;22076;52.182;5.404;2024-01-11T05:34:50;31.20;;;15.85;;
36009;SDS011;22076;52.182;5.404;2024-01-11T05:37:17;30.75;;;16.65;;
36009;SDS011;22076;52.182;5.404;2024-01-11T05:39:45;35.65;;;18.33;;
36009;SDS011;22076;52.182;5.404;2024-01-11T05:42:12;43.00;;;19.45;;
36009;SDS011;22076;52.182;5.404;2024-01-11T05:44:39;52.30;;;24.48;;
36009;SDS011;22076;52.182;5.404;2024-01-11T05:47:05;40.97;;;19.88;;
36009;SDS011;22076;52.182;5.404;2024-01-11T05:49:32;34.70;;;16.25;;
36009;SDS011;22076;52.182;5.404;2024-01-11T05:52:00;39.88;;;18.00;;
36009;SDS011;22076;52.182;5.404;2024-01-11T05:54:26;38.45;;;18.42;;
36009;SDS011;22076;52.182;5.404;2024-01-11T05:56:53;42.90;;;20.48;;
36009;SDS011;22076;52.182;5.404;2024-01-11T05:59:21;58.42;;;25.63;;
36009;SDS011;22076;52.182;5.404;2024-01-11T06:01:53;63.92;;;25.48;;
36009;SDS011;22076;52.182;5.404;2024-01-11T06:04:20;47.88;;;21.95;;
36009;SDS011;22076;52.182;5.404;2024-01-11T06:06:46;46.97;;;19.70;;
36009;SDS011;22076;52.182;5.404;2024-01-11T06:09:14;51.47;;;21.90;;
36009;SDS011;22076;52.182;5.404;2024-01-11T06:11:40;45.30;;;21.70;;
36009;SDS011;22076;52.182;5.404;2024-01-11T06:14:07;50.50;;;23.35;;
36009;SDS011;22076;52.182;5.404;2024-01-11T06:16:33;64.75;;;26.15;;
36009;SDS011;22076;52.182;5.404;2024-01-11T06:19:00;54.85;;;22.77;;
36009;SDS011;22076;52.182;5.404;2024-01-11T06:21:26;46.58;;;19.83;;
36009;SDS011;22076;52.182;5.404;2024-01-11T06:23:53;46.70;;;19.95;;
36009;SDS011;22076;52.182;5.404;2024-01-11T06:26:21;56.00;;;25.23;;
36009;SDS011;22076;52.182;5.404;2024-01-11T06:28:48;44.10;;;19.33;;
36009;SDS011;22076;52.182;5.404;2024-01-11T06:31:14;42.40;;;17.92;;
36009;SDS011;22076;52.182;5.404;2024-01-11T06:33:42;44.03;;;18.40;;
36009;SDS011;22076;52.182;5.404;2024-01-11T06:36:09;44.78;;;20.83;;
36009;SDS011;22076;52.182;5.404;2024-01-11T06:38:35;64.45;;;25.10;;
36009;SDS011;22076;52.182;5.404;2024-01-11T06:41:02;53.47;;;23.63;;
36009;SDS011;22076;52.182;5.404;2024-01-11T06:43:30;56.55;;;24.00;;
36009;SDS011;22076;52.182;5.404;2024-01-11T06:45:58;48.58;;;20.75;;
36009;SDS011;22076;52.182;5.404;2024-01-11T06:48:29;57.58;;;21.98;;
36009;SDS011;22076;52.182;5.404;2024-01-11T06:50:55;49.72;;;22.05;;
36009;SDS011;22076;52.182;5.404;2024-01-11T06:53:22;51.83;;;22.67;;
36009;SDS011;22076;52.182;5.404;2024-01-11T06:55:48;49.17;;;20.08;;
36009;SDS011;22076;52.182;5.404;2024-01-11T06:58:17;58.03;;;23.88;;
36009;SDS011;22076;52.182;5.404;2024-01-11T07:00:45;40.38;;;18.17;;
36009;SDS011;22076;52.182;5.404;2024-01-11T07:03:12;39.73;;;16.40;;
36009;SDS011;22076;52.182;5.404;2024-01-11T07:05:39;63.03;;;25.92;;
36009;SDS011;22076;52.182;5.404;2024-01-11T07:08:06;48.05;;;21.40;;
36009;SDS011;22076;52.182;5.404;2024-01-11T07:10:32;50.47;;;23.13;;
36009;SDS011;22076;52.182;5.404;2024-01-11T07:12:59;75.55;;;29.58;;
36009;SDS011;22076;52.182;5.404;2024-01-11T07:15:25;46.85;;;22.80;;
36009;SDS011;22076;52.182;5.404;2024-01-11T07:17:56;45.28;;;18.88;;
36009;SDS011;22076;52.182;5.404;2024-01-11T07:20:23;37.75;;;18.77;;
36009;SDS011;22076;52.182;5.404;2024-01-11T07:22:50;60.80;;;26.67;;
36009;SDS011;22076;52.182;5.404;2024-01-11T07:25:16;45.67;;;20.25;;
36009;SDS011;22076;52.182;5.404;2024-01-11T07:27:43;43.95;;;20.73;;
36009;SDS011;22076;52.182;5.404;2024-01-11T07:30:10;57.88;;;24.98;;
36009;SDS011;22076;52.182;5.404;2024-01-11T07:32:37;48.75;;;19.75;;
36009;SDS011;22076;52.182;5.404;2024-01-11T07:35:06;66.43;;;26.95;;
36009;SDS011;22076;52.182;5.404;2024-01-11T07:37:35;46.50;;;20.40;;
36009;SDS011;22076;52.182;5.404;2024-01-11T07:40:02;42.15;;;19.05;;
36009;SDS011;22076;52.182;5.404;2024-01-11T07:42:29;40.47;;;19.63;;
36009;SDS011;22076;52.182;5.404;2024-01-11T07:44:56;46.40;;;20.97;;
36009;SDS011;22076;52.182;5.404;2024-01-11T07:47:22;42.20;;;18.88;;
36009;SDS011;22076;52.182;5.404;2024-01-11T07:49:49;43.97;;;18.70;;
36009;SDS011;22076;52.182;5.404;2024-01-11T07:52:17;49.90;;;23.30;;
36009;SDS011;22076;52.182;5.404;2024-01-11T07:54:44;45.72;;;20.75;;
36009;SDS011;22076;52.182;5.404;2024-01-11T07:57:11;47.10;;;22.00;;
36009;SDS011;22076;52.182;5.404;2024-01-11T07:59:37;57.60;;;24.58;;
36009;SDS011;22076;52.182;5.404;2024-01-11T08:02:04;57.70;;;24.63;;
36009;SDS011;22076;52.182;5.404;2024-01-11T08:04:31;49.10;;;22.17;;
36009;SDS011;22076;52.182;5.404;2024-01-11T08:06:58;79.77;;;31.47;;
36009;SDS011;22076;52.182;5.404;2024-01-11T08:09:26;77.45;;;30.42;;
36009;SDS011;22076;52.182;5.404;2024-01-11T08:11:53;40.87;;;18.33;;
36009;SDS011;22076;52.182;5.404;2024-01-11T08:14:20;34.47;;;16.63;;
36009;SDS011;22076;52.182;5.404;2024-01-11T08:16:47;43.77;;;20.60;;
36009;SDS011;22076;52.182;5.404;2024-01-11T08:19:13;49.10;;;22.53;;
36009;SDS011;22076;52.182;5.404;2024-01-11T08:21:40;50.83;;;20.73;;
36009;SDS011;22076;52.182;5.404;2024-01-11T08:24:07;44.85;;;20.77;;
36009;SDS011;22076;52.182;5.404;2024-01-11T08:26:35;45.15;;;18.95;;
36009;SDS011;22076;52.182;5.404;2024-01-11T08:29:02;54.53;;;23.52;;
36009;SDS011;22076;52.182;5.404;2024-01-11T08:31:31;35.63;;;16.25;;
36009;SDS011;22076;52.182;5.404;2024-01-11T08:33:57;47.10;;;20.23;;
36009;SDS011;22076;52.182;5.404;2024-01-11T08:36:24;43.80;;;19.77;;
36009;SDS011;22076;52.182;5.404;2024-01-11T08:38:56;51.15;;;20.58;;
36009;SDS011;22076;52.182;5.404;2024-01-11T08:41:22;51.60;;;23.30;;
36009;SDS011;22076;52.182;5.404;2024-01-11T08:43:50;53.27;;;22.50;;
36009;SDS011;22076;52.182;5.404;2024-01-11T08:46:23;47.13;;;20.00;;
36009;SDS011;22076;52.182;5.404;2024-01-11T08:48:50;40.17;;;16.45;;
36009;SDS011;22076;52.182;5.404;2024-01-11T08:51:16;52.15;;;21.27;;
36009;SDS011;22076;52.182;5.404;2024-01-11T08:53:43;71.13;;;26.27;;
36009;SDS011;22076;52.182;5.404;2024-01-11T08:56:10;45.15;;;19.80;;
36009;SDS011;22076;52.182;5.404;2024-01-11T08:58:37;62.30;;;25.05;;
36009;SDS011;22076;52.182;5.404;2024-01-11T09:01:05;51.65;;;21.02;;
36009;SDS011;22076;52.182;5.404;2024-01-11T09:03:33;71.13;;;27.52;;
36009;SDS011;22076;52.182;5.404;2024-01-11T09:06:00;55.67;;;24.10;;
36009;SDS011;22076;52.182;5.404;2024-01-11T09:08:27;55.03;;;21.60;;
36009;SDS011;22076;52.182;5.404;2024-01-11T09:10:53;72.10;;;29.80;;
36009;SDS011;22076;52.182;5.404;2024-01-11T09:13:20;52.08;;;21.58;;
36009;SDS011;22076;52.182;5.404;2024-01-11T09:15:47;61.15;;;24.58;;
36009;SDS011;22076;52.182;5.404;2024-01-11T09:18:15;52.53;;;21.00;;
36009;SDS011;22076;52.182;5.404;2024-01-11T09:20:42;39.93;;;18.00;;
36009;SDS011;22076;52.182;5.404;2024-01-11T09:23:09;73.90;;;27.52;;
36009;SDS011;22076;52.182;5.404;2024-01-11T09:25:35;46.60;;;19.95;;
36009;SDS011;22076;52.182;5.404;2024-01-11T09:28:02;59.45;;;26.17;;
36009;SDS011;22076;52.182;5.404;2024-01-11T09:30:29;66.68;;;24.50;;
36009;SDS011;22076;52.182;5.404;2024-01-11T09:32:56;70.77;;;28.50;;
36009;SDS011;22076;52.182;5.404;2024-01-11T09:35:24;57.25;;;22.50;;
36009;SDS011;22076;52.182;5.404;2024-01-11T09:37:50;52.08;;;21.13;;
36009;SDS011;22076;52.182;5.404;2024-01-11T09:40:18;62.75;;;27.08;;
36009;SDS011;22076;52.182;5.404;2024-01-11T09:42:45;69.88;;;24.13;;
36009;SDS011;22076;52.182;5.404;2024-01-11T09:45:14;72.20;;;26.65;;
36009;SDS011;22076;52.182;5.404;2024-01-11T09:47:41;65.45;;;25.02;;
36009;SDS011;22076;52.182;5.404;2024-01-11T09:50:09;62.15;;;23.60;;
36009;SDS011;22076;52.182;5.404;2024-01-11T09:52:41;64.35;;;24.35;;
36009;SDS011;22076;52.182;5.404;2024-01-11T09:55:11;59.83;;;21.75;;
36009;SDS011;22076;52.182;5.404;2024-01-11T09:57:38;78.60;;;27.15;;
36009;SDS011;22076;52.182;5.404;2024-01-11T10:00:10;62.13;;;23.83;;
36009;SDS011;22076;52.182;5.404;2024-01-11T10:02:40;52.10;;;19.45;;
36009;SDS011;22076;52.182;5.404;2024-01-11T10:05:06;85.20;;;26.53;;
36009;SDS011;22076;52.182;5.404;2024-01-11T10:07:33;79.60;;;26.13;;
36009;SDS011;22076;52.182;5.404;2024-01-11T10:10:01;67.50;;;23.33;;
36009;SDS011;22076;52.182;5.404;2024-01-11T10:12:28;56.15;;;20.33;;
36009;SDS011;22076;52.182;5.404;2024-01-11T10:14:55;52.10;;;21.05;;
36009;SDS011;22076;52.182;5.404;2024-01-11T10:17:31;59.35;;;22.08;;
36009;SDS011;22076;52.182;5.404;2024-01-11T10:19:58;54.63;;;20.52;;
36009;SDS011;22076;52.182;5.404;2024-01-11T10:22:24;77.75;;;25.80;;
36009;SDS011;22076;52.182;5.404;2024-01-11T10:24:51;87.18;;;28.42;;
36009;SDS011;22076;52.182;5.404;2024-01-11T10:27:36;79.82;;;27.40;;
36009;SDS011;22076;52.182;5.404;2024-01-11T10:30:03;66.85;;;23.60;;
36009;SDS011;22076;52.182;5.404;2024-01-11T10:32:32;80.55;;;27.27;;
36009;SDS011;22076;52.182;5.404;2024-01-11T10:35:03;81.85;;;29.42;;
36009;SDS011;22076;52.182;5.404;2024-01-11T10:37:30;46.15;;;20.40;;
36009;SDS011;22076;52.182;5.404;2024-01-11T10:39:58;84.25;;;27.35;;
36009;SDS011;22076;52.182;5.404;2024-01-11T10:42:35;91.75;;;30.38;;
36009;SDS011;22076;52.182;5.404;2024-01-11T10:45:04;77.93;;;24.63;;
36009;SDS011;22076;52.182;5.404;2024-01-11T10:47:38;62.08;;;21.95;;
36009;SDS011;22076;52.182;5.404;2024-01-11T10:50:13;87.75;;;28.08;;
36009;SDS011;22076;52.182;5.404;2024-01-11T10:52:42;67.57;;;24.17;;
36009;SDS011;22076;52.182;5.404;2024-01-11T10:55:19;54.13;;;19.88;;
36009;SDS011;22076;52.182;5.404;2024-01-11T10:57:49;79.90;;;24.60;;
36009;SDS011;22076;52.182;5.404;2024-01-11T11:00:19;50.55;;;21.60;;
36009;SDS011;22076;52.182;5.404;2024-01-11T11:02:47;77.57;;;28.05;;
36009;SDS011;22076;52.182;5.404;2024-01-11T11:05:16;84.22;;;27.17;;
36009;SDS011;22076;52.182;5.404;2024-01-11T11:07:46;80.47;;;27.15;;
36009;SDS011;22076;52.182;5.404;2024-01-11T11:10:14;68.87;;;23.93;;
36009;SDS011;22076;52.182;5.404;2024-01-11T11:12:41;73.03;;;25.52;;
36009;SDS011;22076;52.182;5.404;2024-01-11T11:15:10;73.63;;;24.17;;
36009;SDS011;22076;52.182;5.404;2024-01-11T11:17:38;72.43;;;26.85;;
36009;SDS011;22076;52.182;5.404;2024-01-11T11:20:06;70.28;;;24.27;;
36009;SDS011;22076;52.182;5.404;2024-01-11T11:22:33;74.28;;;25.95;;
36009;SDS011;22076;52.182;5.404;2024-01-11T11:25:04;74.03;;;27.70;;
36009;SDS011;22076;52.182;5.404;2024-01-11T11:27:34;78.00;;;24.45;;
36009;SDS011;22076;52.182;5.404;2024-01-11T11:30:01;77.60;;;25.23;;
36009;SDS011;22076;52.182;5.404;2024-01-11T11:32:42;79.65;;;28.23;;
36009;SDS011;22076;52.182;5.404;2024-01-11T11:35:09;76.40;;;26.77;;
36009;SDS011;22076;52.182;5.404;2024-01-11T11:37:36;83.90;;;28.42;;
36009;SDS011;22076;52.182;5.404;2024-01-11T11:40:04;69.95;;;23.92;;
36009;SDS011;22076;52.182;5.404;2024-01-11T11:42:31;89.03;;;28.85;;
36009;SDS011;22076;52.182;5.404;2024-01-11T11:44:57;79.60;;;24.98;;
36009;SDS011;22076;52.182;5.404;2024-01-11T11:47:24;80.53;;;26.67;;
36009;SDS011;22076;52.182;5.404;2024-01-11T11:50:06;67.50;;;24.48;;
36009;SDS011;22076;52.182;5.404;2024-01-11T11:52:34;88.00;;;29.30;;
36009;SDS011;22076;52.182;5.404;2024-01-11T11:55:02;64.93;;;24.70;;
36009;SDS011;22076;52.182;5.404;2024-01-11T11:57:30;65.13;;;21.63;;
36009;SDS011;22076;52.182;5.404;2024-01-11T11:59:57;59.88;;;21.80;;
36009;SDS011;22076;52.182;5.404;2024-01-11T12:02:24;64.13;;;21.90;;
36009;SDS011;22076;52.182;5.404;2024-01-11T12:04:52;62.85;;;23.77;;
36009;SDS011;22076;52.182;5.404;2024-01-11T12:07:20;68.32;;;25.90;;
36009;SDS011;22076;52.182;5.404;2024-01-11T12:09:48;60.22;;;21.38;;
36009;SDS011;22076;52.182;5.404;2024-01-11T12:12:15;62.60;;;24.08;;
36009;SDS011;22076;52.182;5.404;2024-01-11T12:14:42;64.45;;;23.52;;
36009;SDS011;22076;52.182;5.404;2024-01-11T12:17:11;55.80;;;22.42;;
36009;SDS011;22076;52.182;5.404;2024-01-11T12:19:38;59.25;;;22.98;;
36009;SDS011;22076;52.182;5.404;2024-01-11T12:22:07;56.30;;;20.02;;
36009;SDS011;22076;52.182;5.404;2024-01-11T12:24:37;52.22;;;20.92;;
36009;SDS011;22076;52.182;5.404;2024-01-11T12:27:03;54.28;;;20.40;;
36009;SDS011;22076;52.182;5.404;2024-01-11T12:29:31;59.97;;;22.23;;
36009;SDS011;22076;52.182;5.404;2024-01-11T12:31:58;63.83;;;24.10;;
36009;SDS011;22076;52.182;5.404;2024-01-11T12:34:24;55.58;;;20.20;;
36009;SDS011;22076;52.182;5.404;2024-01-11T12:36:53;56.28;;;18.77;;
36009;SDS011;22076;52.182;5.404;2024-01-11T12:39:20;51.90;;;20.67;;
36009;SDS011;22076;52.182;5.404;2024-01-11T12:41:50;65.28;;;25.30;;
36009;SDS011;22076;52.182;5.404;2024-01-11T12:44:17;53.35;;;18.88;;
36009;SDS011;22076;52.182;5.404;2024-01-11T12:46:47;52.90;;;21.40;;
36009;SDS011;22076;52.182;5.404;2024-01-11T12:49:15;49.58;;;18.85;;
36009;SDS011;22076;52.182;5.404;2024-01-11T12:51:41;46.80;;;19.27;;
36009;SDS011;22076;52.182;5.404;2024-01-11T12:54:10;56.20;;;21.42;;
36009;SDS011;22076;52.182;5.404;2024-01-11T12:56:42;47.92;;;19.00;;
36009;SDS011;22076;52.182;5.404;2024-01-11T12:59:10;51.70;;;18.38;;
36009;SDS011;22076;52.182;5.404;2024-01-11T13:01:38;55.13;;;20.80;;
36009;SDS011;22076;52.182;5.404;2024-01-11T13:04:05;53.47;;;18.55;;
36009;SDS011;22076;52.182;5.404;2024-01-11T13:06:34;67.63;;;23.92;;
36009;SDS011;22076;52.182;5.404;2024-01-11T13:09:01;46.90;;;17.95;;
36009;SDS011;22076;52.182;5.404;2024-01-11T13:11:29;50.70;;;20.05;;
36009;SDS011;22076;52.182;5.404;2024-01-11T13:13:55;50.00;;;19.83;;
36009;SDS011;22076;52.182;5.404;2024-01-11T13:16:25;43.65;;;20.38;;
36009;SDS011;22076;52.182;5.404;2024-01-11T13:18:52;61.25;;;23.27;;
36009;SDS011;22076;52.182;5.404;2024-01-11T13:21:19;47.08;;;18.80;;
36009;SDS011;22076;52.182;5.404;2024-01-11T13:23:45;47.53;;;19.27;;
36009;SDS011;22076;52.182;5.404;2024-01-11T13:26:12;51.00;;;17.92;;
36009;SDS011;22076;52.182;5.404;2024-01-11T13:28:38;46.95;;;17.73;;
36009;SDS011;22076;52.182;5.404;2024-01-11T13:31:05;41.13;;;17.40;;
36009;SDS011;22076;52.182;5.404;2024-01-11T13:33:36;46.63;;;17.90;;
36009;SDS011;22076;52.182;5.404;2024-01-11T13:36:03;53.88;;;21.20;;
36009;SDS011;22076;52.182;5.404;2024-01-11T13:38:30;41.60;;;17.10;;
36009;SDS011;22076;52.182;5.404;2024-01-11T13:40:57;40.75;;;16.33;;
36009;SDS011;22076;52.182;5.404;2024-01-11T13:43:23;36.55;;;15.90;;
36009;SDS011;22076;52.182;5.404;2024-01-11T13:45:50;44.03;;;17.75;;
36009;SDS011;22076;52.182;5.404;2024-01-11T13:48:16;50.33;;;20.10;;
36009;SDS011;22076;52.182;5.404;2024-01-11T13:50:44;45.72;;;16.98;;
36009;SDS011;22076;52.182;5.404;2024-01-11T13:53:11;38.03;;;16.02;;
36009;SDS011;22076;52.182;5.404;2024-01-11T13:55:38;34.13;;;15.07;;
36009;SDS011;22076;52.182;5.404;2024-01-11T13:58:04;44.47;;;17.58;;
36009;SDS011;22076;52.182;5.404;2024-01-11T14:00:31;44.92;;;16.40;;
36009;SDS011;22076;52.182;5.404;2024-01-11T14:02:57;37.10;;;15.73;;
36009;SDS011;22076;52.182;5.404;2024-01-11T14:05:24;32.92;;;15.10;;
36009;SDS011;22076;52.182;5.404;2024-01-11T14:07:52;41.47;;;16.13;;
36009;SDS011;22076;52.182;5.404;2024-01-11T14:10:23;41.08;;;16.13;;
36009;SDS011;22076;52.182;5.404;2024-01-11T14:12:50;40.83;;;17.70;;
36009;SDS011;22076;52.182;5.404;2024-01-11T14:15:17;36.92;;;15.40;;
36009;SDS011;22076;52.182;5.404;2024-01-11T14:17:43;35.45;;;16.20;;
36009;SDS011;22076;52.182;5.404;2024-01-11T14:20:10;38.25;;;16.63;;
36009;SDS011;22076;52.182;5.404;2024-01-11T14:22:39;45.72;;;18.50;;